METAR Data
IDs: Format: Raw Decoded Include TAF

Data at: 0817 UTC 03 Aug 2021

KRNM 030753Z AUTO 08003KT 10SM CLR 16/06 A3001 RMK AO2 SLP143 T01610061 403720133
KRNM 030653Z AUTO 00000KT 10SM CLR 17/06 A3002 RMK AO2 SLP146 T01720056
KRNM 030553Z AUTO 08003KT 10SM CLR 19/07 A3002 RMK AO2 SLP147 T01940067 10350 20189 50006
KRNM 030453Z AUTO 00000KT 10SM CLR 21/07 A3003 RMK AO2 SLP149 T02060072
KRNM 030353Z AUTO 00000KT 10SM CLR 23/07 A3002 RMK AO2 SLP146 T02280072
KRNM 030253Z 30006KT 10SM CLR 27/06 A3000 RMK AO2 SLP141 T02670061 53004
KRNM 030153Z 29009KT 10SM CLR 31/05 A2999 RMK AO2 SLP140 T03110050
KRNM 030053Z 30010KT 10SM CLR 33/04 A2999 RMK AO2 SLP139 T03330039
KRNM 022353Z 30012G21KT 10SM CLR 34/04 A2999 RMK AO2 SLP138 T03440044 10372 20333 56008
KRNM 022253Z 27012KT 10SM CLR 36/06 A2999 RMK AO2 SLP138 T03610056
KRNM 022153Z 30011G19KT 10SM CLR 37/06 A3001 RMK AO2 SLP142 T03670056
KRNM 022053Z 27012G20KT 250V320 10SM CLR 36/09 A3001 RMK AO2 SLP144 T03610094 58016
KRNM 021953Z 27008KT 10SM CLR 36/08 A3003 RMK AO2 SLP150 T03610083
KRNM 021853Z 30009KT 10SM CLR 36/06 A3004 RMK AO2 SLP154 T03610061
KRNM 021753Z 28009G22KT 10SM CLR 33/07 A3006 RMK AO2 SLP161 T03330067 10339 20133 56007
KRNM 021653Z 30009KT 10SM CLR 32/07 A3006 RMK AO2 SLP162 T03220072
KRNM 021553Z 00000KT 10SM CLR 30/06 A3008 RMK AO2 SLP167 T03000056
KRNM 021453Z 00000KT 10SM CLR 24/07 A3008 RMK AO2 SLP171 T02390072 51012
KRNM 021353Z AUTO 00000KT 10SM CLR 17/07 A3008 RMK AO2 SLP169 T01670072
KRNM 021253Z AUTO 00000KT 10SM CLR 13/05 A3006 RMK AO2 SLP165 T01330050
KRNM 021153Z AUTO 00000KT 10SM CLR 14/06 A3005 RMK AO2 SLP160 T01390056 10194 20139 55003
KRNM 021053Z AUTO 00000KT 10SM CLR 15/06 A3005 RMK AO2 SLP157 T01500056
KRNM 020953Z AUTO 00000KT 10SM CLR 16/07 A3005 RMK AO2 SLP157 T01610067
KRNM 020853Z AUTO 00000KT 10SM CLR 16/07 A3006 RMK AO2 SLP161 T01610072 56002
KRNM 020753Z AUTO 00000KT 10SM CLR 17/06 A3006 RMK AO2 SLP160 T01720061 403560122
KRNM 020653Z AUTO 00000KT 10SM CLR 18/07 A3006 RMK AO2 SLP161 T01830067
KRNM 020553Z AUTO 00000KT 10SM CLR 19/06 A3007 RMK AO2 SLP163 T01940061 10328 20189 51009
KRNM 020453Z AUTO 00000KT 10SM CLR 20/06 A3006 RMK AO2 SLP163 T02000061
KRNM 020353Z AUTO 32003KT 10SM CLR 22/08 A3005 RMK AO2 SLP157 T02170083
KRNM 020253Z 30009KT 10SM CLR 25/11 A3004 RMK AO2 SLP154 T02500106 53003
KRNM 020153Z 27012G18KT 10SM CLR 30/06 A3002 RMK AO2 SLP151 T03000056
KRNM 020053Z 28010KT 10SM CLR 32/M01 A3002 RMK AO2 SLP151 T03221006
KRNM 012353Z 29014KT 10SM CLR 33/04 A3003 RMK AO2 SLP151 T03280044 10356 20317 58006
KRNM 012253Z 29013KT 10SM CLR 34/05 A3004 RMK AO2 SLP154 T03440050
KRNM 012153Z 29013G19KT 10SM CLR 35/04 A3004 RMK AO2 SLP155 T03500044
KRNM 012053Z 28013KT 10SM CLR 35/06 A3004 RMK AO2 SLP156 T03500061 56012